Time;durP1;ratioP1;P1;durP2;ratioP2;P2;SDS_P1;SDS_P2;PMS_P1;PMS_P2;Temp;Humidity;BMP_temperature;BMP_pressure;BME280_temperature;BME280_humidity;BME280_pressure;Samples;Min_cycle;Max_cycle;Signal;HPM_P1;HPM_P2
2023/01/04 00:02:20;;;;;;;;;;;26.20;92.60;;;;;;5084780;28;19908;-58
2023/01/04 00:04:46;;;;;;;;;;;26.30;92.20;;;;;;5084878;28;19979;-56
2023/01/04 00:07:12;;;;;;;;;;;26.30;92.10;;;;;;5084740;28;19915;-58
2023/01/04 00:09:39;;;;;;;;;;;26.20;91.80;;;;;;5085299;28;19900;-59
2023/01/04 00:12:05;;;;;;;;;;;26.30;91.90;;;;;;5083095;28;20193;-59
2023/01/04 00:14:33;;;;;;;;;;;26.20;91.60;;;;;;5080669;28;19911;-59
2023/01/04 00:16:59;;;;;;;;;;;26.20;91.50;;;;;;5084480;28;19908;-59
2023/01/04 00:19:25;;;;;;;;;;;26.20;91.50;;;;;;5084485;28;19911;-58
2023/01/04 00:21:52;;;;;;;;;;;26.20;91.70;;;;;;5084528;28;19904;-59
2023/01/04 00:24:18;;;;;;;;;;;26.20;91.90;;;;;;5084448;28;20189;-58
2023/01/04 00:26:44;;;;;;;;;;;26.20;92.00;;;;;;5084544;28;20241;-59
2023/01/04 00:29:11;;;;;;;;;;;26.20;91.60;;;;;;5084601;28;19980;-58
2023/01/04 00:31:38;;;;;;;;;;;26.10;91.60;;;;;;5084343;28;19944;-57
2023/01/04 00:34:04;;;;;;;;;;;26.10;91.80;;;;;;5084452;28;19919;-57
2023/01/04 00:36:31;;;;;;;;;;;26.10;92.10;;;;;;5084487;28;20188;-56
2023/01/04 00:39:08;;;;;;;;;;;26.00;91.90;;;;;;5084882;28;20093;-57
2023/01/04 00:41:36;;;;;;;;;;;26.00;92.10;;;;;;5084516;28;20208;-58
2023/01/04 00:44:03;;;;;;;;;;;26.10;92.10;;;;;;5084668;28;19917;-57
2023/01/04 00:46:29;;;;;;;;;;;26.00;91.50;;;;;;5094046;28;20074;-58
2023/01/04 00:48:56;;;;;;;;;;;26.00;91.20;;;;;;5105080;28;20100;-58
2023/01/04 00:51:22;;;;;;;;;;;26.00;91.20;;;;;;5104401;28;19926;-57
2023/01/04 00:53:48;;;;;;;;;;;26.00;91.20;;;;;;5104585;28;20215;-57
2023/01/04 00:56:16;;;;;;;;;;;26.10;91.10;;;;;;5104397;28;19911;-58
2023/01/04 00:58:43;;;;;;;;;;;26.00;90.90;;;;;;5106890;28;19908;-57
2023/01/04 01:01:14;;;;;;;;;;;26.00;90.70;;;;;;5108382;28;19904;-57
2023/01/04 01:03:40;;;;;;;;;;;26.00;90.60;;;;;;5109193;28;19953;-59
2023/01/04 01:06:07;;;;;;;;;;;26.00;90.00;;;;;;5108542;28;19904;-59
2023/01/04 01:08:33;;;;;;;;;;;25.90;89.40;;;;;;5108816;28;19962;-58
2023/01/04 01:11:08;;;;;;;;;;;25.90;89.20;;;;;;5103434;28;20185;-57
2023/01/04 01:13:35;;;;;;;;;;;25.90;89.70;;;;;;5100125;28;20188;-56
2023/01/04 01:16:03;;;;;;;;;;;25.90;89.00;;;;;;5108320;28;19908;-58
2023/01/04 01:18:29;;;;;;;;;;;25.90;88.90;;;;;;5105525;28;19916;-59
2023/01/04 01:20:58;;;;;;;;;;;25.90;89.30;;;;;;5096810;28;19908;-59
2023/01/04 01:23:24;;;;;;;;;;;25.90;89.30;;;;;;5088171;28;19908;-59
2023/01/04 01:25:51;;;;;;;;;;;25.90;89.20;;;;;;5087903;28;19971;-59
2023/01/04 01:28:17;;;;;;;;;;;25.90;89.30;;;;;;5088175;28;20268;-58
2023/01/04 01:30:44;;;;;;;;;;;25.90;89.40;;;;;;5087670;28;19975;-56
2023/01/04 01:33:10;;;;;;;;;;;25.90;89.30;;;;;;5088067;28;19926;-58
2023/01/04 01:35:36;;;;;;;;;;;25.90;89.40;;;;;;5087676;28;19908;-60
2023/01/04 01:38:02;;;;;;;;;;;25.90;89.70;;;;;;5088049;28;19954;-60
2023/01/04 01:40:28;;;;;;;;;;;25.90;89.10;;;;;;5090019;28;19911;-56
2023/01/04 01:42:55;;;;;;;;;;;25.90;88.40;;;;;;5108136;28;20021;-57
2023/01/04 01:45:26;;;;;;;;;;;25.80;88.90;;;;;;5107843;28;19911;-56
2023/01/04 01:47:55;;;;;;;;;;;25.90;89.10;;;;;;5108028;28;19911;-57
2023/01/04 01:50:25;;;;;;;;;;;25.90;89.30;;;;;;5101555;28;19904;-55
2023/01/04 01:52:52;;;;;;;;;;;25.90;88.90;;;;;;5097146;28;20128;-58
2023/01/04 01:55:20;;;;;;;;;;;25.90;89.20;;;;;;5107623;28;19900;-57
2023/01/04 01:57:48;;;;;;;;;;;25.80;89.10;;;;;;5107769;28;19930;-58
2023/01/04 02:00:15;;;;;;;;;;;25.80;89.00;;;;;;5107305;28;19908;-56
2023/01/04 02:02:50;;;;;;;;;;;25.80;88.30;;;;;;5089186;28;19980;-56
2023/01/04 02:05:18;;;;;;;;;;;25.80;88.40;;;;;;5101811;28;20009;-53
2023/01/04 02:07:44;;;;;;;;;;;25.90;88.40;;;;;;5105047;28;19923;-60
2023/01/04 02:10:11;;;;;;;;;;;25.90;88.60;;;;;;5103993;28;19951;-58
2023/01/04 02:12:37;;;;;;;;;;;25.90;88.50;;;;;;5098639;28;19915;-57
2023/01/04 02:15:03;;;;;;;;;;;26.00;88.20;;;;;;5106844;28;19904;-60
2023/01/04 02:17:34;;;;;;;;;;;26.10;87.90;;;;;;5107559;28;20181;-58
2023/01/04 02:20:04;;;;;;;;;;;26.20;87.60;;;;;;5106972;28;19908;-50
2023/01/04 02:22:40;;;;;;;;;;;26.30;87.20;;;;;;5103781;28;19915;-56
2023/01/04 02:25:21;;;;;;;;;;;26.30;87.40;;;;;;5088231;28;19963;-59
2023/01/04 02:28:13;;;;;;;;;;;26.40;86.60;;;;;;5086942;28;19908;-57
2023/01/04 02:30:59;;;;;;;;;;;26.40;86.30;;;;;;5070287;28;19900;-57
2023/01/04 02:33:44;;;;;;;;;;;26.50;86.10;;;;;;5086666;28;20100;-54
2023/01/04 02:36:18;;;;;;;;;;;26.50;85.90;;;;;;5086641;28;19900;-54
2023/01/04 02:38:45;;;;;;;;;;;26.50;86.00;;;;;;5086962;28;19947;-57
2023/01/04 02:41:30;;;;;;;;;;;26.50;85.80;;;;;;5086253;28;20136;-57
2023/01/04 02:46:49;;;;;;;;;;;26.50;85.70;;;;;;5086143;28;20023;-57
2023/01/04 02:52:01;;;;;;;;;;;26.50;85.60;;;;;;5086143;28;19943;-57
2023/01/04 02:54:31;;;;;;;;;;;26.50;85.70;;;;;;5086304;28;19911;-59
2023/01/04 02:57:12;;;;;;;;;;;26.60;85.90;;;;;;5086029;28;19904;-57
2023/01/04 02:59:44;;;;;;;;;;;26.50;86.00;;;;;;5085822;28;20019;-56
2023/01/04 03:08:08;;;;;;;;;;;26.50;85.90;;;;;;5100340;28;19916;-55
2023/01/04 04:31:31;;;;;;;6.13;2.60;;;25.60;87.60;;;;;;5056712;28;20437;-55
2023/01/04 04:33:58;;;;;;;3.88;2.50;;;26.10;85.90;;;;;;5024723;28;20046;-56
2023/01/04 04:36:24;;;;;;;3.72;2.40;;;26.20;85.90;;;;;;5017859;28;20015;-55
2023/01/04 04:38:51;;;;;;;5.13;2.58;;;26.20;85.70;;;;;;5017785;28;20041;-56
2023/01/04 04:44:02;;;;;;;4.63;2.40;;;26.30;84.80;;;;;;5017715;28;20024;-55
2023/01/04 04:46:29;;;;;;;4.32;2.40;;;26.30;84.80;;;;;;5033315;28;20132;-63
2023/01/04 04:48:56;;;;;;;3.15;2.15;;;26.30;84.60;;;;;;5037382;28;20022;-59
2023/01/04 04:51:22;;;;;;;4.57;2.00;;;26.40;84.50;;;;;;5111326;28;20360;-54
2023/01/04 04:53:49;;;;;;;8.45;2.63;;;26.40;84.40;;;;;;5024976;27;20038;-56
2023/01/04 04:56:16;;;;;;;5.15;2.28;;;26.40;84.30;;;;;;5037328;28;20021;-56
2023/01/04 04:58:42;;;;;;;3.08;1.90;;;26.40;84.30;;;;;;5037241;28;20021;-57
2023/01/04 05:01:09;;;;;;;5.65;2.55;;;26.40;84.30;;;;;;5037208;28;20030;-63
2023/01/04 05:03:36;;;;;;;5.57;2.40;;;26.40;84.20;;;;;;5037089;28;20020;-59
2023/01/04 05:06:02;;;;;;;3.63;2.35;;;26.40;84.50;;;;;;5019140;28;20018;-56
2023/01/04 05:08:29;;;;;;;3.63;2.15;;;26.40;84.90;;;;;;5017282;28;20030;-60
2023/01/04 05:10:56;;;;;;;5.05;2.30;;;26.40;84.80;;;;;;5017764;28;20199;-56
2023/01/04 05:13:22;;;;;;;3.53;2.00;;;26.40;84.70;;;;;;5017329;28;20026;-56
2023/01/04 05:15:51;;;;;;;4.57;2.15;;;26.40;84.90;;;;;;5017607;28;20030;-55
2023/01/04 05:18:20;;;;;;;4.97;2.33;;;26.40;84.90;;;;;;5017347;28;20089;-54
2023/01/04 05:20:47;;;;;;;5.45;2.30;;;26.40;85.10;;;;;;5017714;28;20033;-55
2023/01/04 05:23:16;;;;;;;5.10;2.72;;;26.40;85.10;;;;;;5017099;28;20033;-56
2023/01/04 05:25:43;;;;;;;3.92;2.50;;;26.40;85.20;;;;;;5017582;28;20044;-56
2023/01/04 05:28:10;;;;;;;3.80;2.40;;;26.40;85.20;;;;;;5017415;28;20093;-56
2023/01/04 05:30:56;;;;;;;6.82;2.40;;;26.40;85.30;;;;;;5028763;28;20049;-56
2023/01/04 05:33:24;;;;;;;3.88;2.45;;;26.30;85.40;;;;;;5012083;28;20014;-57
2023/01/04 05:35:52;;;;;;;5.97;2.80;;;26.40;85.60;;;;;;5004267;28;20102;-56
2023/01/04 05:38:19;;;;;;;4.78;2.80;;;26.30;85.60;;;;;;5004168;28;20261;-54
2023/01/04 05:40:48;;;;;;;3.08;2.65;;;26.40;85.70;;;;;;5004383;28;20058;-55
2023/01/04 05:43:16;;;;;;;5.15;2.83;;;26.40;85.80;;;;;;5003785;28;20033;-55
2023/01/04 05:45:46;;;;;;;6.13;2.60;;;26.30;85.70;;;;;;5004700;28;20034;-56
2023/01/04 05:48:12;;;;;;;3.00;2.70;;;26.30;86.00;;;;;;5003648;28;20053;-56
2023/01/04 05:50:39;;;;;;;5.28;2.55;;;26.30;85.90;;;;;;5004005;28;20264;-55
2023/01/04 05:53:06;;;;;;;5.80;3.00;;;26.30;85.90;;;;;;5003636;28;20034;-54
2023/01/04 05:55:34;;;;;;;6.28;2.63;;;26.30;85.90;;;;;;5015555;28;20038;-53
2023/01/04 05:58:00;;;;;;;6.57;2.80;;;26.30;85.70;;;;;;5023204;28;20191;-56
2023/01/04 06:00:27;;;;;;;4.68;2.40;;;26.30;85.80;;;;;;5023567;28;20328;-55
2023/01/04 06:02:56;;;;;;;4.90;2.35;;;26.30;85.70;;;;;;5023036;28;20263;-55
2023/01/04 06:05:24;;;;;;;4.40;2.00;;;26.30;85.80;;;;;;5023552;28;20037;-55
2023/01/04 06:07:51;;;;;;;5.55;2.30;;;26.30;85.70;;;;;;5023069;28;20329;-55
2023/01/04 06:10:19;;;;;;;3.90;2.45;;;26.30;85.70;;;;;;5023162;28;20082;-53
2023/01/04 06:12:46;;;;;;;3.70;2.10;;;26.20;85.60;;;;;;5023157;28;20224;-55
2023/01/04 06:15:13;;;;;;;3.60;2.22;;;26.20;85.50;;;;;;5023388;28;20038;-55
2023/01/04 06:17:41;;;;;;;7.25;2.70;;;26.20;85.40;;;;;;5022874;28;20041;-54
2023/01/04 06:20:11;;;;;;;8.52;2.80;;;26.20;85.60;;;;;;5023151;28;20103;-58
2023/01/04 06:22:39;;;;;;;7.45;3.30;;;26.20;85.60;;;;;;5022847;28;20270;-56
2023/01/04 06:25:07;;;;;;;7.38;2.80;;;26.20;86.20;;;;;;5022582;28;20029;-56
2023/01/04 06:27:33;;;;;;;6.18;3.00;;;26.20;85.80;;;;;;5022751;28;20041;-55
2023/01/04 06:30:00;;;;;;;5.05;3.10;;;26.20;86.00;;;;;;5022600;28;20337;-62
2023/01/04 06:32:26;;;;;;;6.60;2.83;;;26.20;86.00;;;;;;5004986;28;20340;-56
2023/01/04 06:34:53;;;;;;;7.90;3.00;;;26.20;86.30;;;;;;5016636;28;20030;-56
2023/01/04 06:37:19;;;;;;;11.02;3.33;;;26.20;86.50;;;;;;5003012;28;20084;-60
2023/01/04 06:39:46;;;;;;;5.30;2.97;;;26.10;86.50;;;;;;5003116;28;20038;-54
2023/01/04 06:44:59;;;;;;;11.52;3.85;;;26.20;86.70;;;;;;5003201;28;20037;-60
2023/01/04 06:47:25;;;;;;;7.53;3.50;;;26.20;86.90;;;;;;5003070;28;20049;-61
2023/01/04 06:49:52;;;;;;;7.60;3.50;;;26.10;86.90;;;;;;5003028;28;20038;-56
2023/01/04 06:52:19;;;;;;;6.35;3.00;;;26.10;87.00;;;;;;5002821;28;20021;-57
2023/01/04 06:54:46;;;;;;;6.32;3.15;;;26.10;87.20;;;;;;5002969;28;20026;-56
2023/01/04 06:57:12;;;;;;;5.43;3.50;;;26.00;87.10;;;;;;5002806;28;20026;-59
2023/01/04 06:59:39;;;;;;;6.82;3.40;;;26.00;87.20;;;;;;5002945;28;20041;-56
2023/01/04 07:02:06;;;;;;;4.90;3.13;;;26.00;87.10;;;;;;5002528;28;20042;-55
2023/01/04 07:04:32;;;;;;;5.78;2.83;;;26.00;87.20;;;;;;5002917;28;20026;-55
2023/01/04 07:06:59;;;;;;;4.82;2.80;;;26.00;87.30;;;;;;5002599;28;20034;-55
2023/01/04 07:09:26;;;;;;;5.45;2.55;;;26.00;87.10;;;;;;5002493;28;20248;-55
2023/01/04 07:11:52;;;;;;;4.25;2.70;;;26.00;87.20;;;;;;5002521;28;20033;-55
2023/01/04 07:14:19;;;;;;;9.77;2.83;;;26.00;87.10;;;;;;5002671;28;20030;-55
2023/01/04 07:16:46;;;;;;;4.68;2.67;;;25.90;87.00;;;;;;5002626;28;20310;-55
2023/01/04 07:19:12;;;;;;;5.55;2.40;;;25.90;86.90;;;;;;5002490;28;20039;-59
2023/01/04 07:21:39;;;;;;;6.53;2.60;;;25.90;86.80;;;;;;5002378;28;20031;-55
2023/01/04 07:24:06;;;;;;;10.15;2.65;;;25.90;86.80;;;;;;5002255;28;20048;-55
2023/01/04 07:26:34;;;;;;;4.43;2.30;;;25.90;86.60;;;;;;5002262;28;20345;-55
2023/01/04 07:29:16;;;;;;;6.85;2.45;;;25.90;86.90;;;;;;5002224;28;20180;-55
2023/01/04 07:31:45;;;;;;;5.20;2.45;;;25.90;86.20;;;;;;5002162;28;20345;-55
2023/01/04 07:34:12;;;;;;;6.38;2.13;;;25.90;86.20;;;;;;5002444;28;20226;-55
2023/01/04 07:36:39;;;;;;;3.03;2.05;;;25.90;85.40;;;;;;5001944;28;20025;-61
2023/01/04 07:39:09;;;;;;;3.53;1.98;;;25.90;85.30;;;;;;5002193;28;20030;-56
2023/01/04 07:41:36;;;;;;;5.30;1.90;;;25.90;84.80;;;;;;5002034;28;20049;-55
2023/01/04 07:44:04;;;;;;;3.70;1.90;;;25.90;85.10;;;;;;5001970;28;20093;-56
2023/01/04 07:46:31;;;;;;;2.85;1.73;;;25.90;84.40;;;;;;5002072;28;20034;-55
2023/01/04 07:48:58;;;;;;;5.82;1.70;;;25.90;84.50;;;;;;5001924;28;20314;-55
2023/01/04 07:51:24;;;;;;;2.78;1.60;;;25.90;84.10;;;;;;5001838;28;20089;-54
2023/01/04 07:53:51;;;;;;;3.13;1.60;;;25.90;84.20;;;;;;5001598;28;20018;-55
2023/01/04 07:56:18;;;;;;;3.20;1.67;;;26.00;83.70;;;;;;5002147;28;20072;-56
2023/01/04 07:58:44;;;;;;;3.95;1.58;;;26.00;83.80;;;;;;5001676;28;20050;-56
2023/01/04 08:01:18;;;;;;;3.05;1.40;;;25.90;83.50;;;;;;5002086;28;20023;-55
2023/01/04 08:03:45;;;;;;;4.45;1.95;;;26.00;83.90;;;;;;5006671;28;20050;-56
2023/01/04 08:06:14;;;;;;;3.88;2.00;;;26.00;83.70;;;;;;5012726;28;20024;-56
2023/01/04 08:08:41;;;;;;;4.72;1.90;;;25.90;83.60;;;;;;5021140;28;20034;-56
2023/01/04 08:11:10;;;;;;;3.65;1.90;;;25.90;83.50;;;;;;5021263;28;20022;-55
2023/01/04 08:13:37;;;;;;;3.72;1.90;;;25.90;83.50;;;;;;5021041;28;20045;-57
2023/01/04 08:16:04;;;;;;;4.95;1.73;;;25.90;83.10;;;;;;5021199;28;20034;-55
2023/01/04 08:18:30;;;;;;;2.88;1.90;;;26.00;83.40;;;;;;5021200;28;20025;-55
2023/01/04 08:21:07;;;;;;;2.47;1.70;;;25.90;83.30;;;;;;5020937;28;20374;-55
2023/01/04 08:23:35;;;;;;;3.90;1.70;;;26.00;83.50;;;;;;5021116;28;20244;-56
2023/01/04 08:26:11;;;;;;;3.53;1.75;;;25.90;83.30;;;;;;5021031;28;20078;-61
2023/01/04 08:28:37;;;;;;;2.90;1.40;;;25.90;83.50;;;;;;5020973;28;20026;-56
2023/01/04 08:31:13;;;;;;;2.63;1.80;;;25.90;83.30;;;;;;5014106;28;20083;-55
2023/01/04 08:33:42;;;;;;;5.07;1.95;;;25.90;83.70;;;;;;5003550;28;20022;-55
2023/01/04 08:36:20;;;;;;;3.13;1.80;;;25.90;83.70;;;;;;5001376;28;20030;-55
2023/01/04 08:38:50;;;;;;;5.40;1.90;;;25.90;83.70;;;;;;5001178;28;20030;-54
2023/01/04 08:41:17;;;;;;;5.75;1.95;;;25.90;83.90;;;;;;5001269;28;20028;-57
2023/01/04 08:43:44;;;;;;;3.40;1.80;;;25.80;84.10;;;;;;5001204;28;20053;-55
2023/01/04 08:46:11;;;;;;;3.75;1.83;;;25.80;84.70;;;;;;5001118;28;20040;-54
2023/01/04 08:48:39;;;;;;;2.95;1.90;;;25.80;84.30;;;;;;5001206;28;20353;-55
2023/01/04 08:51:08;;;;;;;3.65;1.80;;;25.80;84.40;;;;;;5001133;28;20038;-56
2023/01/04 08:53:35;;;;;;;3.45;1.45;;;25.80;84.40;;;;;;5000934;28;20068;-56
2023/01/04 08:56:02;;;;;;;3.75;1.77;;;25.80;84.50;;;;;;5011400;28;20037;-62
2023/01/04 08:58:30;;;;;;;5.50;1.98;;;25.80;84.30;;;;;;5002042;28;20037;-56
2023/01/04 09:01:03;;;;;;;4.18;1.65;;;25.80;84.30;;;;;;5001404;28;20337;-58
2023/01/04 09:03:30;;;;;;;2.97;1.90;;;25.80;84.30;;;;;;5001086;28;20031;-58
2023/01/04 09:06:08;;;;;;;3.97;2.00;;;25.80;84.40;;;;;;5001838;28;20034;-57
2023/01/04 09:08:37;;;;;;;4.45;1.70;;;25.70;84.30;;;;;;5004283;28;20027;-56
2023/01/04 09:11:07;;;;;;;2.67;1.77;;;25.70;84.80;;;;;;5004347;28;20249;-59
2023/01/04 09:13:37;;;;;;;5.80;1.67;;;25.70;84.30;;;;;;5004094;28;20306;-56
2023/01/04 09:16:06;;;;;;;3.42;1.60;;;25.70;84.40;;;;;;5004211;28;20213;-56
2023/01/04 09:18:33;;;;;;;3.05;1.52;;;25.70;84.30;;;;;;5004110;28;20018;-55
2023/01/04 09:21:09;;;;;;;3.95;1.83;;;25.70;84.30;;;;;;5004237;28;20188;-59
2023/01/04 09:23:37;;;;;;;4.85;1.85;;;25.70;84.30;;;;;;5005410;28;20104;-56
2023/01/04 09:26:11;;;;;;;4.15;1.77;;;25.70;84.20;;;;;;5013207;28;20022;-56
2023/01/04 09:28:38;;;;;;;3.28;1.75;;;25.70;84.30;;;;;;5003995;28;20034;-56
2023/01/04 09:31:06;;;;;;;3.15;1.70;;;25.70;84.10;;;;;;5003906;28;20115;-56
2023/01/04 09:33:33;;;;;;;2.92;1.92;;;25.70;84.10;;;;;;5003790;28;20090;-55
2023/01/04 09:36:07;;;;;;;5.55;1.83;;;25.70;84.10;;;;;;5003933;28;20045;-56
2023/01/04 09:38:34;;;;;;;3.17;1.88;;;25.70;84.10;;;;;;5003830;28;20041;-56
2023/01/04 09:41:21;;;;;;;2.83;1.50;;;25.70;84.00;;;;;;5003799;28;20325;-58
2023/01/04 09:43:53;;;;;;;3.67;1.70;;;25.70;84.90;;;;;;5003837;28;20067;-56
2023/01/04 09:46:28;;;;;;;3.08;1.95;;;25.70;84.30;;;;;;5003698;28;20040;-59
2023/01/04 09:49:12;;;;;;;3.05;1.75;;;25.70;84.00;;;;;;5003657;28;20048;-57
2023/01/04 09:51:44;;;;;;;3.72;1.80;;;25.70;83.90;;;;;;5003696;28;20018;-56
2023/01/04 09:54:19;;;;;;;5.15;1.88;;;25.70;83.70;;;;;;5004021;28;20042;-56
2023/01/04 09:56:52;;;;;;;4.68;1.80;;;25.70;83.60;;;;;;5013458;28;20097;-57
2023/01/04 09:59:26;;;;;;;5.38;1.60;;;25.80;83.60;;;;;;5023339;28;20038;-59
2023/01/04 10:02:18;;;;;;;5.00;1.90;;;25.70;83.30;;;;;;5022874;28;20022;-56
2023/01/04 10:04:50;;;;;;;2.17;1.50;;;25.80;83.80;;;;;;5023210;28;20245;-55
2023/01/04 10:07:32;;;;;;;4.10;1.73;;;25.80;83.30;;;;;;5022985;28;20018;-56
2023/01/04 10:09:59;;;;;;;2.78;1.75;;;25.80;83.20;;;;;;5023263;28;20030;-58
2023/01/04 10:12:51;;;;;;;2.08;1.30;;;25.80;83.10;;;;;;5022871;28;20028;-55
2023/01/04 10:15:27;;;;;;;2.00;1.70;;;25.80;83.10;;;;;;5018501;28;20042;-56
2023/01/04 10:18:19;;;;;;;2.95;1.77;;;25.80;82.90;;;;;;5016802;28;20026;-55
2023/01/04 10:21:15;;;;;;;4.22;1.48;;;25.80;82.80;;;;;;5015014;28;20033;-56
2023/01/04 10:23:51;;;;;;;3.08;1.55;;;25.80;82.70;;;;;;5003185;28;20035;-56
2023/01/04 10:26:44;;;;;;;2.75;1.50;;;25.80;82.60;;;;;;5003370;28;20056;-56
2023/01/04 10:29:39;;;;;;;2.58;1.67;;;25.80;82.80;;;;;;5003185;28;20336;-57
2023/01/04 10:32:13;;;;;;;4.70;1.58;;;25.90;82.50;;;;;;5003122;28;20030;-55
2023/01/04 10:34:43;;;;;;;1.90;1.40;;;25.90;82.30;;;;;;5003185;28;20023;-55
2023/01/04 10:37:32;;;;;;;3.67;1.50;;;25.90;82.50;;;;;;5003210;28;20026;-55
2023/01/04 10:39:59;;;;;;;3.13;1.80;;;25.90;82.60;;;;;;5002847;28;20107;-54
2023/01/04 10:42:45;;;;;;;2.58;1.52;;;25.90;82.40;;;;;;5002995;28;20256;-55
2023/01/04 10:45:30;;;;;;;1.60;1.35;;;25.90;82.70;;;;;;5003105;28;20056;-54
2023/01/04 10:48:22;;;;;;;3.08;1.45;;;25.90;82.60;;;;;;5002806;28;20038;-55
2023/01/04 10:50:58;;;;;;;5.10;1.80;;;25.90;82.80;;;;;;5004862;28;20038;-55
2023/01/04 10:53:45;;;;;;;4.38;1.75;;;25.90;83.40;;;;;;5002770;28;20034;-53
2023/01/04 10:56:27;;;;;;;5.47;1.90;;;25.90;83.90;;;;;;5002726;28;20026;-57
2023/01/04 10:59:22;;;;;;;2.78;1.77;;;25.80;84.30;;;;;;5002554;28;20034;-60
2023/01/04 11:01:51;;;;;;;5.07;1.90;;;25.80;84.50;;;;;;5002672;28;20030;-57
2023/01/04 11:04:32;;;;;;;5.72;2.17;;;25.80;84.80;;;;;;5002678;28;20046;-56
2023/01/04 11:07:07;;;;;;;4.30;2.20;;;25.70;85.10;;;;;;5004265;28;20029;-59
2023/01/04 11:10:04;;;;;;;5.43;2.42;;;25.70;85.30;;;;;;5008475;28;20095;-58
2023/01/04 11:12:31;;;;;;;6.45;2.42;;;25.80;85.60;;;;;;5013795;28;20318;-57
2023/01/04 11:14:58;;;;;;;8.05;2.28;;;25.70;86.00;;;;;;5002726;28;20045;-56
2023/01/04 11:17:25;;;;;;;9.15;2.40;;;25.70;86.00;;;;;;5002373;28;20025;-58
2023/01/04 11:19:53;;;;;;;5.07;2.00;;;25.70;86.10;;;;;;5002455;28;20037;-54
2023/01/04 11:22:23;;;;;;;4.10;1.80;;;25.70;86.60;;;;;;5002353;28;20084;-57
2023/01/04 11:24:55;;;;;;;7.65;2.60;;;25.40;87.40;;;;;;5002308;28;20269;-59
2023/01/04 11:27:26;;;;;;;8.35;3.33;;;25.20;88.10;;;;;;5001960;28;20038;-59
2023/01/04 11:30:02;;;;;;;6.80;3.15;;;25.30;88.10;;;;;;5001510;28;20050;-66
2023/01/04 11:32:50;;;;;;;7.20;3.05;;;25.40;87.90;;;;;;5002060;28;20034;-58
2023/01/04 11:35:35;;;;;;;10.32;3.80;;;25.40;87.80;;;;;;5002535;28;20035;-58
2023/01/04 11:38:17;;;;;;;9.90;3.40;;;25.50;87.70;;;;;;5002134;28;20026;-59
2023/01/04 11:41:05;;;;;;;20.77;4.53;;;25.50;87.60;;;;;;5002521;28;20038;-59
2023/01/04 11:43:34;;;;;;;26.63;6.70;;;25.50;87.60;;;;;;5000416;28;20030;-61
2023/01/04 11:46:08;;;;;;;21.67;5.93;;;25.60;87.60;;;;;;5000307;28;20038;-60
2023/01/04 11:48:38;;;;;;;49.63;7.90;;;25.60;87.60;;;;;;5000233;28;20052;-59
2023/01/04 11:51:15;;;;;;;47.03;7.07;;;25.70;87.60;;;;;;5000208;28;20329;-61
2023/01/04 11:53:42;;;;;;;40.67;5.72;;;25.70;87.50;;;;;;5000078;28;20225;-60
2023/01/04 11:56:19;;;;;;;30.55;5.72;;;25.70;87.60;;;;;;5000217;28;20106;-62
2023/01/04 11:59:04;;;;;;;20.52;4.45;;;25.70;87.80;;;;;;5001520;28;20030;-59
2023/01/04 12:01:33;;;;;;;15.10;3.78;;;25.70;87.90;;;;;;5001847;28;20078;-59
2023/01/04 12:04:00;;;;;;;14.80;4.68;;;25.70;88.00;;;;;;5001623;28;20218;-59
2023/01/04 12:06:56;;;;;;;10.20;4.00;;;25.70;88.00;;;;;;5001748;28;20060;-62
2023/01/04 12:09:23;;;;;;;18.70;4.28;;;25.70;88.10;;;;;;5001488;28;20036;-60
2023/01/04 12:11:55;;;;;;;20.55;4.45;;;25.70;88.10;;;;;;5001718;28;20026;-59
2023/01/04 12:14:28;;;;;;;25.45;5.10;;;25.70;88.10;;;;;;5001756;28;20051;-58
2023/01/04 12:17:07;;;;;;;35.35;5.10;;;25.70;88.30;;;;;;5001552;28;20026;-59
2023/01/04 12:19:34;;;;;;;34.80;5.53;;;25.70;88.30;;;;;;5001769;28;20263;-60
2023/01/04 12:22:03;;;;;;;34.78;5.18;;;25.70;88.30;;;;;;5001340;28;20034;-60
2023/01/04 12:24:33;;;;;;;33.03;5.13;;;25.70;88.30;;;;;;5001466;28;20049;-60
2023/01/04 12:27:00;;;;;;;38.42;5.65;;;25.70;88.90;;;;;;5001461;28;20248;-62
2023/01/04 12:29:51;;;;;;;39.00;5.40;;;25.70;88.40;;;;;;5001191;28;20050;-59
2023/01/04 12:32:18;;;;;;;21.95;4.13;;;25.80;88.60;;;;;;5001419;28;20018;-62
2023/01/04 12:34:46;;;;;;;18.70;3.78;;;25.80;88.80;;;;;;5001536;28;20038;-62
2023/01/04 12:37:44;;;;;;;15.27;3.70;;;25.80;88.80;;;;;;5001353;28;20025;-59
2023/01/04 12:40:48;;;;;;;18.65;3.58;;;25.80;88.80;;;;;;5001636;28;20201;-59
2023/01/04 12:43:14;;;;;;;9.40;2.88;;;25.80;88.90;;;;;;5004940;28;20095;-58
2023/01/04 12:49:02;;;;;;;14.00;3.58;;;25.80;88.90;;;;;;5005181;28;20182;-60
2023/01/04 12:51:26;;;;;;;12.35;3.38;;;25.80;89.00;;;;;;5004577;28;20038;-58
2023/01/04 12:54:21;;;;;;;8.68;3.13;;;25.80;89.00;;;;;;5004610;28;20067;-57
2023/01/04 12:57:15;;;;;;;10.75;3.80;;;25.90;89.20;;;;;;5004448;28;20136;-64
2023/01/04 13:00:02;;;;;;;9.02;3.20;;;25.90;89.20;;;;;;5004801;28;20082;-59
2023/01/04 13:02:31;;;;;;;10.52;3.08;;;25.90;89.20;;;;;;5004559;28;20357;-59
2023/01/04 13:05:16;;;;;;;6.65;2.70;;;25.90;89.10;;;;;;5004694;28;20033;-58
2023/01/04 13:07:57;;;;;;;7.90;3.00;;;25.90;89.30;;;;;;5004439;28;20034;-58
2023/01/04 13:10:38;;;;;;;6.78;3.08;;;25.90;89.10;;;;;;5004098;28;20026;-59
2023/01/04 13:13:23;;;;;;;9.50;2.80;;;25.90;89.10;;;;;;5004366;28;20077;-60
2023/01/04 13:16:17;;;;;;;3.65;2.30;;;26.00;89.20;;;;;;5004673;28;20023;-59
2023/01/04 13:18:58;;;;;;;7.18;2.65;;;25.90;89.30;;;;;;5004118;28;20371;-59
2023/01/04 13:21:42;;;;;;;6.70;2.58;;;25.90;89.30;;;;;;5004160;28;20015;-61
2023/01/04 13:24:23;;;;;;;4.28;2.28;;;25.90;89.30;;;;;;5004059;28;20310;-59
2023/01/04 13:26:53;;;;;;;4.10;2.20;;;25.90;89.30;;;;;;5004147;28;20206;-58
2023/01/04 13:29:29;;;;;;;3.90;2.03;;;25.90;89.10;;;;;;5003783;28;20043;-62
2023/01/04 13:32:04;;;;;;;5.13;2.30;;;25.90;89.10;;;;;;5003920;28;20026;-59
2023/01/04 13:34:38;;;;;;;7.78;2.42;;;25.90;89.10;;;;;;5004013;28;20043;-63
2023/01/04 13:37:16;;;;;;;3.58;2.38;;;25.90;89.10;;;;;;5003942;28;20016;-58
2023/01/04 13:39:44;;;;;;;5.05;2.45;;;25.90;89.20;;;;;;5004177;28;20091;-55
2023/01/04 13:42:26;;;;;;;6.40;2.53;;;25.90;89.40;;;;;;5003934;28;20312;-59
2023/01/04 13:45:09;;;;;;;7.07;2.70;;;25.90;89.50;;;;;;5004160;28;20079;-58
2023/01/04 13:47:39;;;;;;;8.38;2.88;;;26.00;89.60;;;;;;5003807;28;20027;-59
2023/01/04 13:50:18;;;;;;;3.13;2.13;;;26.00;89.70;;;;;;5004097;28;20191;-58
2023/01/04 13:52:46;;;;;;;3.70;2.10;;;25.90;89.80;;;;;;5003335;28;20042;-59
2023/01/04 13:55:22;;;;;;;5.93;2.60;;;25.90;90.00;;;;;;5004048;28;20042;-59
2023/01/04 13:57:58;;;;;;;5.63;2.08;;;25.90;90.10;;;;;;5003512;28;20014;-58
2023/01/04 14:00:31;;;;;;;5.75;2.35;;;25.90;90.20;;;;;;5004140;28;20060;-58
2023/01/04 14:03:09;;;;;;;;;;;25.80;90.20;;;;;;5003897;28;20033;-59
2023/01/04 14:05:37;;;;;;;6.90;2.58;;;25.80;90.20;;;;;;5004004;28;19910;-58
2023/01/04 14:08:10;;;;;;;8.10;3.08;;;25.70;90.30;;;;;;5003323;28;20218;-61
2023/01/04 14:10:42;;;;;;;13.20;6.03;;;25.70;90.40;;;;;;5003775;28;20337;-62
2023/01/04 14:13:17;;;;;;;14.25;7.93;;;25.70;90.60;;;;;;5003427;28;20023;-60
2023/01/04 14:15:44;;;;;;;14.02;7.70;;;25.70;90.60;;;;;;5003766;28;20038;-58
2023/01/04 14:18:31;;;;;;;11.73;6.75;;;25.70;90.80;;;;;;5003348;28;20310;-65
2023/01/04 14:20:57;;;;;;;10.20;5.40;;;25.70;91.00;;;;;;5003028;28;20066;-61
2023/01/04 14:23:43;;;;;;;11.13;5.28;;;25.70;91.00;;;;;;5003278;28;20237;-58
2023/01/04 14:26:32;;;;;;;7.97;4.53;;;25.70;91.00;;;;;;5003060;28;20042;-59
2023/01/04 14:29:18;;;;;;;9.38;3.97;;;25.70;91.10;;;;;;5003073;28;20245;-60
2023/01/04 14:31:45;;;;;;;11.43;4.75;;;25.70;91.30;;;;;;5003053;28;20034;-59
2023/01/04 14:34:13;;;;;;;9.50;4.03;;;25.70;91.40;;;;;;5003156;28;20026;-59
2023/01/04 14:36:41;;;;;;;9.70;4.97;;;25.70;91.50;;;;;;5002882;28;20222;-60
2023/01/04 14:39:10;;;;;;;8.98;4.55;;;25.70;91.60;;;;;;5003141;28;20044;-58
2023/01/04 14:41:48;;;;;;;7.68;4.82;;;25.70;91.80;;;;;;5003013;28;20031;-58
2023/01/04 14:44:24;;;;;;;7.53;4.63;;;25.60;91.80;;;;;;5003049;28;20042;-58
2023/01/04 14:46:55;;;;;;;8.20;5.13;;;25.60;91.90;;;;;;5002879;28;20018;-59
2023/01/04 14:49:25;;;;;;;7.40;4.90;;;25.60;92.00;;;;;;5002806;28;20030;-57
2023/01/04 14:51:57;;;;;;;8.95;5.00;;;25.50;92.10;;;;;;5002761;28;20261;-59
2023/01/04 14:54:25;;;;;;;9.18;4.47;;;25.50;92.10;;;;;;5002699;28;20030;-61
2023/01/04 14:56:54;;;;;;;6.53;4.38;;;25.50;92.20;;;;;;5002718;28;20060;-59
2023/01/04 14:59:24;;;;;;;7.50;4.95;;;25.50;92.30;;;;;;5002854;28;20045;-59
2023/01/04 15:01:52;;;;;;;8.95;5.13;;;25.50;92.40;;;;;;5002528;28;20340;-59
2023/01/04 15:04:18;;;;;;;6.20;5.18;;;25.50;92.40;;;;;;5001820;28;20058;-58
2023/01/04 15:07:03;;;;;;;6.63;5.07;;;25.50;92.50;;;;;;5002590;28;20037;-58
2023/01/04 15:09:30;;;;;;;12.15;5.47;;;25.50;92.40;;;;;;5002636;28;20050;-59
2023/01/04 15:11:57;;;;;;;11.93;5.15;;;25.50;92.50;;;;;;5002647;28;20034;-59